createdAt,value
2022-12-11T00:00:43.768Z,94810.94
2022-12-11T00:03:15.919Z,94780.66
2022-12-11T00:05:46.054Z,94795.69
2022-12-11T00:08:15.658Z,94807.56
2022-12-11T00:10:49.761Z,94812.41
2022-12-11T00:13:19.512Z,94807.84
2022-12-11T00:15:47.863Z,94806.88
2022-12-11T00:18:16.310Z,94804.00
2022-12-11T00:20:44.673Z,94745.81
2022-12-11T00:23:13.396Z,94770.78
2022-12-11T00:25:44.059Z,94767.78
2022-12-11T00:28:12.864Z,94791.72
2022-12-11T00:30:43.921Z,94788.91
2022-12-11T00:33:13.132Z,94799.19
2022-12-11T00:35:41.897Z,94798.16
2022-12-11T00:38:10.988Z,94798.50
2022-12-11T00:40:39.655Z,94760.50
2022-12-11T00:43:08.101Z,94796.81
2022-12-11T00:45:38.299Z,94795.19
2022-12-11T00:48:09.120Z,94813.94
2022-12-11T00:50:37.795Z,94775.47
2022-12-11T00:53:07.887Z,94800.28
2022-12-11T00:55:39.175Z,94787.00
2022-12-11T00:58:08.169Z,94804.47
2022-12-11T01:00:36.567Z,94814.00
2022-12-11T01:03:05.485Z,94807.72
2022-12-11T01:05:35.458Z,94773.00
2022-12-11T01:08:04.238Z,94809.53
2022-12-11T01:10:31.795Z,94817.16
2022-12-11T01:13:02.264Z,94813.19
2022-12-11T01:15:32.461Z,94810.34
2022-12-11T01:18:00.902Z,94826.03
2022-12-11T01:20:29.710Z,94818.09
2022-12-11T01:23:01.223Z,94821.91
2022-12-11T01:25:30.747Z,94820.75
2022-12-11T01:27:59.092Z,94800.66
2022-12-11T01:30:28.363Z,94802.34
2022-12-11T01:32:56.736Z,94809.81
2022-12-11T01:35:25.255Z,94819.97
2022-12-11T01:37:53.715Z,94815.00
2022-12-11T01:40:24.310Z,94819.41
2022-12-11T01:42:52.722Z,94821.41
2022-12-11T01:45:38.941Z,94810.44
2022-12-11T01:48:11.024Z,94813.03
2022-12-11T01:50:43.928Z,94809.00
2022-12-11T01:53:18.907Z,94787.53
2022-12-11T01:55:50.096Z,94808.19
2022-12-11T01:58:20.103Z,94810.16
2022-12-11T02:00:48.783Z,94811.78
2022-12-11T02:03:17.175Z,94815.44
2022-12-11T02:05:45.670Z,94734.69
2022-12-11T02:08:14.867Z,94812.53
2022-12-11T02:11:02.849Z,94810.09
2022-12-11T02:13:40.949Z,94815.81
2022-12-11T02:16:18.511Z,94814.81
2022-12-11T02:18:55.244Z,94807.88
2022-12-11T02:21:28.335Z,94802.84
2022-12-11T02:24:23.581Z,94805.69
2022-12-11T02:27:20.028Z,94799.59
2022-12-11T02:29:55.585Z,94799.50
2022-12-11T02:32:28.485Z,94789.91
2022-12-11T02:35:01.555Z,94789.66
2022-12-11T02:37:33.890Z,94806.50
2022-12-11T02:40:06.025Z,94801.91
2022-12-11T02:42:35.651Z,94803.63
2022-12-11T02:45:09.052Z,94806.50
2022-12-11T02:47:38.800Z,94806.22
2022-12-11T02:50:12.683Z,94777.88
2022-12-11T02:52:42.916Z,94812.22
2022-12-11T02:55:14.114Z,94799.75
2022-12-11T02:57:47.150Z,94799.94
2022-12-11T03:00:19.089Z,94799.13
2022-12-11T03:02:47.756Z,94794.66
2022-12-11T03:05:16.956Z,94799.94
2022-12-11T03:07:46.550Z,94798.25
2022-12-11T03:10:19.172Z,94773.91
2022-12-11T03:12:53.734Z,94803.34
2022-12-11T03:15:33.190Z,94780.22
2022-12-11T03:18:10.276Z,94809.91
2022-12-11T03:20:44.433Z,94808.28
2022-12-11T03:23:23.081Z,94806.31
2022-12-11T03:25:56.807Z,94688.59
2022-12-11T03:28:30.529Z,94805.00
2022-12-11T03:31:06.853Z,94781.44
2022-12-11T03:33:38.942Z,94801.19
2022-12-11T03:36:11.691Z,94803.25
2022-12-11T03:38:49.315Z,94804.50
2022-12-11T03:41:20.582Z,94800.47
2022-12-11T03:43:52.804Z,94808.59
2022-12-11T03:46:25.931Z,94764.66
2022-12-11T03:48:57.965Z,94807.41
2022-12-11T03:51:27.469Z,94808.03
2022-12-11T03:53:57.450Z,94794.50
2022-12-11T03:56:28.768Z,94812.94
2022-12-11T03:58:57.380Z,94812.56
2022-12-11T04:01:27.248Z,94805.75
2022-12-11T04:03:55.849Z,94814.50
2022-12-11T04:06:24.329Z,94762.06
2022-12-11T04:08:52.756Z,94802.41
2022-12-11T04:11:36.254Z,94806.84
2022-12-11T04:14:23.594Z,94778.81
2022-12-11T04:16:54.262Z,94803.09
2022-12-11T04:19:40.891Z,94791.31
2022-12-11T04:22:28.138Z,94808.50
2022-12-11T04:24:56.490Z,94808.28
2022-12-11T04:27:42.859Z,94779.72
2022-12-11T04:30:15.052Z,94801.25
2022-12-11T04:32:44.960Z,94786.56
2022-12-11T04:35:14.342Z,94793.53
2022-12-11T04:37:43.405Z,94773.19
2022-12-11T04:40:14.754Z,94789.63
2022-12-11T04:42:43.136Z,94789.34
2022-12-11T04:45:12.961Z,94581.88
2022-12-11T04:47:42.977Z,94791.06
2022-12-11T04:50:15.272Z,94776.91
2022-12-11T04:52:43.895Z,94786.22
2022-12-11T04:55:13.721Z,94796.78
2022-12-11T04:57:42.773Z,94800.00
2022-12-11T05:00:13.796Z,94742.63
2022-12-11T05:02:43.538Z,94733.88
2022-12-11T05:05:14.729Z,94795.22
2022-12-11T05:07:43.687Z,94796.84
2022-12-11T05:10:12.284Z,94800.06
2022-12-11T05:12:40.776Z,94799.63
2022-12-11T05:15:10.218Z,94808.13
2022-12-11T05:17:38.987Z,94771.63
2022-12-11T05:20:08.423Z,94804.41
2022-12-11T05:22:39.505Z,94798.75
2022-12-11T05:25:09.524Z,94799.63
2022-12-11T05:27:38.247Z,94782.91
2022-12-11T05:30:08.221Z,94797.81
2022-12-11T05:32:36.894Z,94790.09
2022-12-11T05:35:05.697Z,94794.94
2022-12-11T05:37:35.218Z,94764.72
2022-12-11T05:40:06.674Z,94766.91
2022-12-11T05:42:35.347Z,94799.25
2022-12-11T05:45:03.825Z,94796.84
2022-12-11T05:47:33.090Z,94730.66
2022-12-11T05:50:01.627Z,94794.84
2022-12-11T05:52:30.100Z,94794.41
2022-12-11T05:54:58.509Z,94790.69
2022-12-11T05:57:28.364Z,94792.31
2022-12-11T05:59:56.751Z,94791.69
2022-12-11T06:02:25.574Z,94795.38
2022-12-11T06:04:54.139Z,94797.34
2022-12-11T06:07:22.591Z,94792.88
2022-12-11T06:09:51.065Z,94787.16
2022-12-11T06:12:19.402Z,94789.22
2022-12-11T06:14:49.516Z,94782.69
2022-12-11T06:17:17.955Z,94754.88
2022-12-11T06:19:46.368Z,94778.44
2022-12-11T06:22:14.754Z,94771.88
2022-12-11T06:24:43.525Z,94766.75
2022-12-11T06:27:11.876Z,94750.19
2022-12-11T06:29:40.386Z,94778.47
2022-12-11T06:32:10.583Z,94779.72
2022-12-11T06:34:39.062Z,94741.03
2022-12-11T06:37:07.445Z,94771.44
2022-12-11T06:39:35.763Z,94775.66
2022-12-11T06:42:04.076Z,94726.78
2022-12-11T06:44:32.487Z,94778.09
2022-12-11T06:47:00.870Z,94775.66
2022-12-11T06:49:30.648Z,94778.91
2022-12-11T06:51:59.025Z,94773.78
2022-12-11T06:54:28.171Z,94779.28
2022-12-11T06:56:56.675Z,94773.56
2022-12-11T06:59:26.383Z,94768.06
2022-12-11T07:01:54.793Z,94783.31
2022-12-11T07:04:25.105Z,94772.75
2022-12-11T07:06:55.381Z,94780.84
2022-12-11T07:09:24.158Z,94770.28
2022-12-11T07:11:52.767Z,94773.31
2022-12-11T07:14:21.410Z,94765.94
2022-12-11T07:16:49.788Z,94779.38
2022-12-11T07:19:18.668Z,94772.31
2022-12-11T07:21:46.944Z,94774.50
2022-12-11T07:24:17.236Z,94735.63
2022-12-11T07:26:45.657Z,94775.94
2022-12-11T07:29:14.013Z,94776.28
2022-12-11T07:31:42.449Z,94765.53
2022-12-11T07:34:14.664Z,94773.44
2022-12-11T07:36:43.705Z,94732.28
2022-12-11T07:39:13.501Z,94779.53
2022-12-11T07:41:43.300Z,94777.53
2022-12-11T07:44:12.170Z,94778.34
2022-12-11T07:46:41.892Z,94781.94
2022-12-11T07:49:10.324Z,94728.50
2022-12-11T07:51:39.489Z,94792.50
2022-12-11T07:54:10.849Z,94783.94
2022-12-11T07:56:41.917Z,94778.81
2022-12-11T07:59:14.345Z,94756.78
2022-12-11T08:01:43.456Z,94783.66
2022-12-11T08:04:15.913Z,94789.50
2022-12-11T08:06:44.851Z,94757.22
2022-12-11T08:09:21.082Z,94782.59
2022-12-11T08:11:50.126Z,94784.22
2022-12-11T08:14:20.111Z,94798.00
2022-12-11T08:16:49.098Z,94795.75
2022-12-11T08:19:18.573Z,94793.03
2022-12-11T08:21:47.013Z,94801.97
2022-12-11T08:24:16.599Z,94761.03
2022-12-11T08:26:44.905Z,94799.78
2022-12-11T08:29:13.196Z,94802.06
2022-12-11T08:31:43.333Z,94801.84
2022-12-11T08:34:14.284Z,94770.19
2022-12-11T08:36:44.082Z,94803.28
2022-12-11T08:39:12.434Z,94794.34
2022-12-11T08:41:40.846Z,94777.19
2022-12-11T08:44:16.351Z,94807.78
2022-12-11T08:46:48.278Z,94796.34
2022-12-11T08:49:16.625Z,94795.63
2022-12-11T08:51:45.414Z,94775.56
2022-12-11T08:54:13.674Z,94808.59
2022-12-11T08:56:42.240Z,94795.72
2022-12-11T08:59:11.098Z,94793.34
2022-12-11T09:01:39.794Z,94651.38
2022-12-11T09:04:09.728Z,94721.88
2022-12-11T09:06:37.989Z,94815.31
2022-12-11T09:09:06.738Z,94816.56
2022-12-11T09:11:38.008Z,94822.03
2022-12-11T09:14:08.258Z,94820.00
2022-12-11T09:16:40.948Z,94820.44
2022-12-11T09:19:14.422Z,94824.25
2022-12-11T09:21:44.107Z,94776.25
2022-12-11T09:24:13.997Z,94804.00
2022-12-11T09:26:42.692Z,94802.06
2022-12-11T09:29:13.737Z,94819.31
2022-12-11T09:31:42.526Z,94826.09
2022-12-11T09:34:14.717Z,94823.59
2022-12-11T09:36:44.460Z,94825.97
2022-12-11T09:39:13.869Z,94821.31
2022-12-11T09:41:54.884Z,94815.59
2022-12-11T09:44:36.211Z,94814.69
2022-12-11T09:47:05.188Z,94811.47
2022-12-11T09:49:41.351Z,94815.88
2022-12-11T09:52:15.580Z,94806.47
2022-12-11T09:54:50.600Z,94801.97
2022-12-11T09:57:31.056Z,94782.44
2022-12-11T10:00:15.432Z,94799.69
2022-12-11T10:03:11.537Z,94782.00
2022-12-11T10:05:48.967Z,94807.16
2022-12-11T10:08:23.153Z,94808.47
2022-12-11T10:11:00.413Z,94804.81
2022-12-11T10:13:37.983Z,94791.22
2022-12-11T10:16:16.943Z,94803.88
2022-12-11T10:18:45.824Z,94774.44
2022-12-11T10:21:18.332Z,94801.53
2022-12-11T10:23:54.987Z,94802.34
2022-12-11T10:26:24.488Z,94777.16
2022-12-11T10:28:53.281Z,94781.13
2022-12-11T10:31:26.506Z,94768.16
2022-12-11T10:34:01.669Z,94778.13
2022-12-11T10:36:33.131Z,94769.25
2022-12-11T10:39:02.743Z,94757.53
2022-12-11T10:41:39.872Z,94772.34
2022-12-11T10:44:18.544Z,94720.09
2022-12-11T10:46:48.425Z,94764.78
2022-12-11T10:49:27.268Z,94753.28
2022-12-11T10:52:01.462Z,94758.13
2022-12-11T10:54:38.380Z,94755.03
2022-12-11T10:57:10.206Z,94607.78
2022-12-11T10:59:42.566Z,94752.25
2022-12-11T11:02:23.393Z,94753.78
2022-12-11T11:04:52.729Z,94744.19
2022-12-11T11:07:25.397Z,94752.69
2022-12-11T11:10:16.515Z,94752.22
2022-12-11T11:12:46.693Z,94743.09
2022-12-11T11:15:16.760Z,94744.19
2022-12-11T11:17:54.637Z,94745.44
2022-12-11T11:20:26.265Z,94742.19
2022-12-11T11:22:58.376Z,94732.59
2022-12-11T11:25:29.020Z,94736.00
2022-12-11T11:27:59.422Z,94739.03
2022-12-11T11:30:30.296Z,94679.91
2022-12-11T11:33:02.416Z,94713.50
2022-12-11T11:35:32.675Z,94719.63
2022-12-11T11:38:19.588Z,94720.22
2022-12-11T11:40:57.047Z,94710.69
2022-12-11T11:43:37.092Z,94721.88
2022-12-11T11:46:10.428Z,94680.28
2022-12-11T11:48:47.240Z,94721.97
2022-12-11T11:51:20.204Z,94718.75
2022-12-11T11:53:53.045Z,94712.28
2022-12-11T11:56:24.918Z,94713.84
2022-12-11T11:59:04.598Z,94710.50
2022-12-11T12:01:33.220Z,94654.50
2022-12-11T12:04:04.300Z,94675.94
2022-12-11T12:06:58.150Z,94709.69
2022-12-11T12:09:43.732Z,94712.56
2022-12-11T12:12:27.420Z,94741.06
2022-12-11T12:15:18.402Z,94696.34
2022-12-11T12:17:56.080Z,94720.22
2022-12-11T12:20:31.072Z,94716.75
2022-12-11T12:23:13.041Z,94717.91
2022-12-11T12:25:50.446Z,94722.03
2022-12-11T12:28:32.623Z,94712.72
2022-12-11T12:31:14.859Z,94713.75
2022-12-11T12:33:55.264Z,94705.00
2022-12-11T12:36:29.121Z,94708.47
2022-12-11T12:39:04.077Z,94722.59
2022-12-11T12:41:42.904Z,94662.06
2022-12-11T12:44:20.367Z,94712.78
2022-12-11T12:46:59.326Z,94719.84
2022-12-11T12:49:41.581Z,94706.63
2022-12-11T12:52:16.989Z,94712.34
2022-12-11T12:55:10.214Z,94705.88
2022-12-11T12:57:43.913Z,94712.34
2022-12-11T13:00:13.753Z,94707.88
2022-12-11T13:02:50.702Z,94703.38
2022-12-11T13:05:24.680Z,94689.78
2022-12-11T13:07:56.023Z,94697.81
2022-12-11T13:10:28.668Z,94700.34
2022-12-11T13:12:58.799Z,94682.34
2022-12-11T13:15:39.200Z,94695.19
2022-12-11T13:18:32.640Z,94693.56
2022-12-11T13:21:01.448Z,94697.53
2022-12-11T13:23:31.426Z,94692.38
2022-12-11T13:26:02.448Z,94686.53
2022-12-11T13:28:35.008Z,94690.03
2022-12-11T13:31:24.681Z,94699.78
2022-12-11T13:33:56.151Z,94662.69
2022-12-11T13:36:36.160Z,94698.63
2022-12-11T13:39:08.242Z,94674.88
2022-12-11T13:41:40.119Z,94701.41
2022-12-11T13:44:16.953Z,94709.78
2022-12-11T13:46:45.639Z,94694.81
2022-12-11T13:49:22.709Z,94700.34
2022-12-11T13:51:56.605Z,94695.69
2022-12-11T13:54:26.119Z,94701.22
2022-12-11T13:57:03.383Z,94700.34
2022-12-11T13:59:36.197Z,94675.25
2022-12-11T14:02:16.949Z,94693.28
2022-12-11T14:04:45.992Z,94683.44
2022-12-11T14:07:14.553Z,94701.78
2022-12-11T14:09:47.149Z,94695.94
2022-12-11T14:12:21.310Z,94684.78
2022-12-11T14:14:54.719Z,94698.84
2022-12-11T14:17:27.317Z,94679.19
2022-12-11T14:19:57.618Z,94684.16
2022-12-11T14:22:27.709Z,94711.94
2022-12-11T14:24:57.457Z,94710.34
2022-12-11T14:27:27.157Z,94714.81
2022-12-11T14:29:57.405Z,94687.84
2022-12-11T14:32:33.285Z,94718.34
2022-12-11T14:35:03.549Z,94680.94
2022-12-11T14:37:32.950Z,94696.03
2022-12-11T14:40:04.363Z,94712.19
2022-12-11T14:42:40.046Z,94714.25
2022-12-11T14:45:20.812Z,94689.56
2022-12-11T14:47:49.609Z,94721.50
2022-12-11T14:50:23.109Z,94725.63
2022-12-11T14:52:54.913Z,94721.97
2022-12-11T14:55:26.613Z,94705.81
2022-12-11T14:57:58.981Z,94720.72
2022-12-11T15:00:32.073Z,94701.94
2022-12-11T15:03:02.753Z,94721.97
2022-12-11T15:05:37.159Z,94721.97
2022-12-11T15:08:25.718Z,94716.25
2022-12-11T15:11:04.272Z,94683.22
2022-12-11T15:13:33.909Z,94723.13
2022-12-11T15:16:05.178Z,94716.03
2022-12-11T15:18:37.277Z,94717.66
2022-12-11T15:21:09.780Z,94721.69
2022-12-11T15:23:48.909Z,94724.91
2022-12-11T15:26:17.237Z,94731.19
2022-12-11T15:28:45.910Z,94727.56
2022-12-11T15:31:28.519Z,94725.50
2022-12-11T15:33:57.357Z,94725.94
2022-12-11T15:36:32.202Z,94737.66
2022-12-11T15:39:02.819Z,94731.19
2022-12-11T15:41:34.783Z,94726.34
2022-12-11T15:44:05.353Z,94730.25
2022-12-11T15:46:38.496Z,94733.53
2022-12-11T15:49:13.799Z,94734.94
2022-12-11T15:51:43.558Z,94701.16
2022-12-11T15:54:12.464Z,94737.25
2022-12-11T15:56:40.969Z,94683.44
2022-12-11T15:59:09.472Z,94744.84
2022-12-11T16:01:39.366Z,94739.53
2022-12-11T16:04:07.979Z,94727.19
2022-12-11T16:06:36.240Z,94746.25
2022-12-11T16:09:05.845Z,94689.56
2022-12-11T16:11:34.232Z,94714.69
2022-12-11T16:14:04.945Z,94741.56
2022-12-11T16:16:33.779Z,94740.97
2022-12-11T16:19:03.630Z,94740.97
2022-12-11T16:21:32.653Z,94736.28
2022-12-11T16:24:01.651Z,94723.06
2022-12-11T16:26:30.573Z,94731.50
2022-12-11T16:28:59.028Z,94728.66
2022-12-11T16:31:27.418Z,94745.97
2022-12-11T16:33:55.828Z,94745.97
2022-12-11T16:36:26.882Z,94739.88
2022-12-11T16:38:55.502Z,94737.25
2022-12-11T16:41:25.094Z,94741.56
2022-12-11T16:43:54.878Z,94733.91
2022-12-11T16:46:25.378Z,94738.19
2022-12-11T16:48:54.145Z,94737.56
2022-12-11T16:51:23.046Z,94742.06
2022-12-11T16:53:53.515Z,94749.75
2022-12-11T16:56:21.816Z,94739.56
2022-12-11T16:58:50.891Z,94748.66
2022-12-11T17:01:19.252Z,94758.63
2022-12-11T17:03:48.018Z,94725.78
2022-12-11T17:06:18.426Z,94764.13
2022-12-11T17:08:47.205Z,94758.22
2022-12-11T17:11:19.174Z,94764.16
2022-12-11T17:13:47.753Z,94757.91
2022-12-11T17:16:18.387Z,94761.56
2022-12-11T17:18:46.772Z,94763.63
2022-12-11T17:21:17.288Z,94758.94
2022-12-11T17:23:46.877Z,94759.47
2022-12-11T17:26:17.102Z,94736.53
2022-12-11T17:28:46.308Z,94764.47
2022-12-11T17:31:17.686Z,94751.44
2022-12-11T17:33:47.491Z,94753.06
2022-12-11T17:36:17.396Z,94725.84
2022-12-11T17:38:45.956Z,94739.38
2022-12-11T17:41:20.544Z,94773.31
2022-12-11T17:43:50.410Z,94765.78
2022-12-11T17:46:19.940Z,94761.56
2022-12-11T17:48:50.253Z,94768.91
2022-12-11T17:51:25.007Z,94766.09
2022-12-11T17:53:57.156Z,94763.47
2022-12-11T17:56:29.550Z,94691.78
2022-12-11T17:59:01.070Z,94770.31
2022-12-11T18:01:31.222Z,94770.75
2022-12-11T18:04:02.436Z,94765.66
2022-12-11T18:06:32.893Z,94771.53
2022-12-11T18:09:02.625Z,94764.03
2022-12-11T18:11:34.301Z,94768.72
2022-12-11T18:14:05.310Z,94639.34
2022-12-11T18:16:37.374Z,94776.22
2022-12-11T18:19:08.969Z,94774.97
2022-12-11T18:21:42.800Z,94745.09
2022-12-11T18:24:13.318Z,94772.47
2022-12-11T18:26:44.833Z,94732.59
2022-12-11T18:29:15.048Z,94769.50
2022-12-11T18:31:44.949Z,94775.00
2022-12-11T18:34:13.382Z,94729.00
2022-12-11T18:36:42.632Z,94774.19
2022-12-11T18:39:11.102Z,94713.22
2022-12-11T18:41:40.118Z,94746.50
2022-12-11T18:44:10.302Z,94775.00
2022-12-11T18:46:39.731Z,94779.47
2022-12-11T18:49:08.478Z,94779.88
2022-12-11T18:51:37.732Z,94777.41
2022-12-11T18:54:06.503Z,94752.19
2022-12-11T18:56:34.852Z,94735.78
2022-12-11T18:59:03.475Z,94763.66
2022-12-11T19:01:34.652Z,94768.97
2022-12-11T19:04:07.839Z,94770.78
2022-12-11T19:06:40.127Z,94775.28
2022-12-11T19:09:09.417Z,94774.66
2022-12-11T19:11:40.157Z,94772.88
2022-12-11T19:14:09.140Z,94765.88
2022-12-11T19:16:41.141Z,94763.81
2022-12-11T19:19:12.478Z,94757.56
2022-12-11T19:21:41.777Z,94747.63
2022-12-11T19:24:13.743Z,94761.75
2022-12-11T19:26:42.780Z,94724.84
2022-12-11T19:29:11.552Z,94691.19
2022-12-11T19:31:41.710Z,94761.63
2022-12-11T19:34:10.110Z,94757.34
2022-12-11T19:36:38.926Z,94765.13
2022-12-11T19:39:12.821Z,94718.13
2022-12-11T19:41:44.205Z,94755.34
2022-12-11T19:44:14.863Z,94774.09
2022-12-11T19:46:46.236Z,94775.72
2022-12-11T19:49:16.139Z,94766.38
2022-12-11T19:51:45.857Z,94766.16
2022-12-11T19:54:19.432Z,94769.38
2022-12-11T19:56:48.474Z,94770.63
2022-12-11T19:59:20.462Z,94763.53
2022-12-11T20:01:51.608Z,94767.34
2022-12-11T20:04:22.024Z,94764.69
2022-12-11T20:06:51.777Z,94732.25
2022-12-11T20:09:21.717Z,94738.28
2022-12-11T20:11:52.356Z,94764.69
2022-12-11T20:14:25.644Z,94766.75
2022-12-11T20:17:15.004Z,94768.38
2022-12-11T20:19:45.755Z,94725.88
2022-12-11T20:22:16.157Z,94753.56
2022-12-11T20:24:47.559Z,94680.34
2022-12-11T20:27:17.431Z,94758.31
2022-12-11T20:29:47.548Z,94770.88
2022-12-11T20:32:18.900Z,94775.56
2022-12-11T20:34:48.599Z,94775.97
2022-12-11T20:37:18.796Z,94770.91
2022-12-11T20:39:48.748Z,94775.75
2022-12-11T20:42:18.639Z,94759.22
2022-12-11T20:44:49.361Z,94757.53
2022-12-11T20:47:22.103Z,94757.53
2022-12-11T20:49:52.755Z,94770.88
2022-12-11T20:52:23.591Z,94748.59
2022-12-11T20:54:53.350Z,94765.19
2022-12-11T20:57:23.151Z,94755.06
2022-12-11T20:59:52.751Z,94767.00
2022-12-11T21:02:24.195Z,94763.13
2022-12-11T21:04:53.963Z,94756.22
2022-12-11T21:07:23.806Z,94755.84
2022-12-11T21:09:53.545Z,94743.72
2022-12-11T21:12:29.782Z,94761.97
2022-12-11T21:15:01.206Z,94753.06
2022-12-11T21:17:33.196Z,94725.59
2022-12-11T21:20:03.010Z,94755.91
2022-12-11T21:22:32.951Z,94746.66
2022-12-11T21:25:02.516Z,94750.50
2022-12-11T21:27:31.546Z,94741.41
2022-12-11T21:29:59.830Z,94759.25
2022-12-11T21:32:30.093Z,94751.19
2022-12-11T21:35:01.825Z,94751.00
2022-12-11T21:37:30.470Z,94735.81
2022-12-11T21:40:00.724Z,94741.50
2022-12-11T21:42:29.147Z,94748.41
2022-12-11T21:45:37.569Z,94617.53
2022-12-11T21:47:46.099Z,94753.72
2022-12-11T21:50:15.975Z,94757.16
2022-12-11T21:52:44.642Z,94744.59
2022-12-11T21:55:13.917Z,94668.88
2022-12-11T21:57:42.687Z,94749.09
2022-12-11T22:00:12.730Z,94750.09
2022-12-11T22:02:41.505Z,94748.91
2022-12-11T22:05:11.119Z,94750.09
2022-12-11T22:07:41.321Z,94745.25
2022-12-11T22:10:10.813Z,94750.50
2022-12-11T22:12:39.235Z,94712.94
2022-12-11T22:15:09.418Z,94757.38
2022-12-11T22:17:39.043Z,94754.16
2022-12-11T22:20:08.065Z,94747.91
2022-12-11T22:22:37.030Z,94736.38
2022-12-11T22:25:10.079Z,94769.94
2022-12-11T22:27:38.701Z,94720.19
2022-12-11T22:30:08.421Z,94769.94
2022-12-11T22:32:36.845Z,94753.56
2022-12-11T22:35:06.184Z,94765.88
2022-12-11T22:37:34.900Z,94694.34
2022-12-11T22:40:03.610Z,94764.47
2022-12-11T22:42:33.714Z,94776.00
2022-12-11T22:45:02.049Z,94773.16
2022-12-11T22:47:30.824Z,94771.94
2022-12-11T22:49:59.146Z,94765.50
2022-12-11T22:52:27.521Z,94773.16
2022-12-11T22:54:55.846Z,94758.19
2022-12-11T22:57:24.290Z,94732.31
2022-12-11T22:59:54.465Z,94756.38
2022-12-11T23:02:22.991Z,94779.41
2022-12-11T23:04:51.405Z,94762.63
2022-12-11T23:07:19.789Z,94787.31
2022-12-11T23:09:48.242Z,94782.03
2022-12-11T23:12:16.626Z,94775.41
2022-12-11T23:14:45.056Z,94777.38
2022-12-11T23:17:14.874Z,94775.97
2022-12-11T23:19:43.399Z,94774.78
2022-12-11T23:22:11.748Z,94745.03
2022-12-11T23:24:40.192Z,94745.25
2022-12-11T23:27:09.331Z,94749.50
2022-12-11T23:29:37.734Z,94773.13
2022-12-11T23:32:06.481Z,94780.41
2022-12-11T23:34:36.560Z,94776.34
2022-12-11T23:37:04.981Z,94763.41
2022-12-11T23:39:33.421Z,94781.63
2022-12-11T23:42:01.679Z,94768.28
2022-12-11T23:44:30.083Z,94776.78
2022-12-11T23:46:58.766Z,94766.28
2022-12-11T23:49:27.291Z,94700.34
2022-12-11T23:51:58.026Z,94702.59
2022-12-11T23:54:26.447Z,94698.94
2022-12-11T23:56:55.149Z,94769.72
2022-12-11T23:59:23.493Z,94788.13
